sensor_id;sensor_type;location;lat;lon;timestamp;temperature;humidity
61016;DHT22;46902;52.920;6.536;2023-04-24T00:00:55;11.10;99.90
61016;DHT22;46902;52.920;6.536;2023-04-24T00:03:23;11.10;99.90
61016;DHT22;46902;52.920;6.536;2023-04-24T00:05:48;11.10;99.90
61016;DHT22;46902;52.920;6.536;2023-04-24T00:08:14;11.10;99.90
61016;DHT22;46902;52.920;6.536;2023-04-24T00:10:40;11.10;99.90
61016;DHT22;46902;52.920;6.536;2023-04-24T00:13:06;11.00;99.90
61016;DHT22;46902;52.920;6.536;2023-04-24T00:15:31;11.00;99.90
61016;DHT22;46902;52.920;6.536;2023-04-24T00:17:57;11.00;99.90
61016;DHT22;46902;52.920;6.536;2023-04-24T00:20:23;10.90;99.90
61016;DHT22;46902;52.920;6.536;2023-04-24T00:22:48;10.80;99.90
61016;DHT22;46902;52.920;6.536;2023-04-24T00:25:14;10.80;99.90
61016;DHT22;46902;52.920;6.536;2023-04-24T00:27:40;10.80;99.90
61016;DHT22;46902;52.920;6.536;2023-04-24T00:30:06;10.80;99.90
61016;DHT22;46902;52.920;6.536;2023-04-24T00:32:32;10.80;99.90
61016;DHT22;46902;52.920;6.536;2023-04-24T00:34:57;10.80;99.90
61016;DHT22;46902;52.920;6.536;2023-04-24T00:37:23;10.80;99.90
61016;DHT22;46902;52.920;6.536;2023-04-24T00:39:49;10.80;99.90
61016;DHT22;46902;52.920;6.536;2023-04-24T00:42:14;10.80;99.90
61016;DHT22;46902;52.920;6.536;2023-04-24T00:44:40;10.70;99.90
61016;DHT22;46902;52.920;6.536;2023-04-24T00:47:07;10.80;99.90
61016;DHT22;46902;52.920;6.536;2023-04-24T00:49:33;10.80;99.90
61016;DHT22;46902;52.920;6.536;2023-04-24T00:51:58;10.70;99.90
61016;DHT22;46902;52.920;6.536;2023-04-24T00:54:24;10.70;99.90
61016;DHT22;46902;52.920;6.536;2023-04-24T00:56:50;10.70;99.90
61016;DHT22;46902;52.920;6.536;2023-04-24T00:59:17;10.70;99.90
61016;DHT22;46902;52.920;6.536;2023-04-24T01:01:44;10.70;99.90
61016;DHT22;46902;52.920;6.536;2023-04-24T01:04:11;10.60;99.90
61016;DHT22;46902;52.920;6.536;2023-04-24T01:06:38;10.60;99.90
61016;DHT22;46902;52.920;6.536;2023-04-24T01:09:04;10.50;99.90
61016;DHT22;46902;52.920;6.536;2023-04-24T01:11:30;10.40;99.90
61016;DHT22;46902;52.920;6.536;2023-04-24T01:13:56;10.40;99.90
61016;DHT22;46902;52.920;6.536;2023-04-24T01:16:22;10.40;99.90
61016;DHT22;46902;52.920;6.536;2023-04-24T01:18:48;10.30;99.90
61016;DHT22;46902;52.920;6.536;2023-04-24T01:21:15;10.30;99.90
61016;DHT22;46902;52.920;6.536;2023-04-24T01:23:43;10.30;99.90
61016;DHT22;46902;52.920;6.536;2023-04-24T01:26:08;10.20;99.90
61016;DHT22;46902;52.920;6.536;2023-04-24T01:28:34;10.20;99.90
61016;DHT22;46902;52.920;6.536;2023-04-24T01:31:00;10.20;99.90
61016;DHT22;46902;52.920;6.536;2023-04-24T01:33:25;10.20;99.90
61016;DHT22;46902;52.920;6.536;2023-04-24T01:35:51;10.20;99.90
61016;DHT22;46902;52.920;6.536;2023-04-24T01:38:17;10.20;99.90
61016;DHT22;46902;52.920;6.536;2023-04-24T01:40:43;10.20;99.90
61016;DHT22;46902;52.920;6.536;2023-04-24T01:43:08;10.20;99.90
61016;DHT22;46902;52.920;6.536;2023-04-24T01:45:34;10.20;99.90
61016;DHT22;46902;52.920;6.536;2023-04-24T01:48:00;10.20;99.90
61016;DHT22;46902;52.920;6.536;2023-04-24T01:50:26;10.20;99.90
61016;DHT22;46902;52.920;6.536;2023-04-24T01:52:52;10.20;99.90
61016;DHT22;46902;52.920;6.536;2023-04-24T01:55:17;10.20;99.90
61016;DHT22;46902;52.920;6.536;2023-04-24T01:57:43;10.20;99.90
61016;DHT22;46902;52.920;6.536;2023-04-24T02:00:09;10.20;99.90
61016;DHT22;46902;52.920;6.536;2023-04-24T02:02:37;10.20;99.90
61016;DHT22;46902;52.920;6.536;2023-04-24T02:05:06;10.20;99.90
61016;DHT22;46902;52.920;6.536;2023-04-24T02:07:31;10.20;99.90
61016;DHT22;46902;52.920;6.536;2023-04-24T02:09:58;10.10;99.90
61016;DHT22;46902;52.920;6.536;2023-04-24T02:12:23;10.10;99.90
61016;DHT22;46902;52.920;6.536;2023-04-24T02:14:49;10.10;99.90
61016;DHT22;46902;52.920;6.536;2023-04-24T02:17:14;10.10;99.90
61016;DHT22;46902;52.920;6.536;2023-04-24T02:19:41;10.10;99.90
61016;DHT22;46902;52.920;6.536;2023-04-24T02:22:07;10.00;99.90
61016;DHT22;46902;52.920;6.536;2023-04-24T02:24:32;10.00;99.90
61016;DHT22;46902;52.920;6.536;2023-04-24T02:26:58;9.90;99.90
61016;DHT22;46902;52.920;6.536;2023-04-24T02:29:23;9.90;99.90
61016;DHT22;46902;52.920;6.536;2023-04-24T02:31:49;9.90;99.90
61016;DHT22;46902;52.920;6.536;2023-04-24T02:34:15;9.90;99.90
61016;DHT22;46902;52.920;6.536;2023-04-24T02:36:41;9.90;99.90
61016;DHT22;46902;52.920;6.536;2023-04-24T02:39:07;9.90;99.90
61016;DHT22;46902;52.920;6.536;2023-04-24T02:41:33;9.90;99.90
61016;DHT22;46902;52.920;6.536;2023-04-24T02:43:59;9.80;99.90
61016;DHT22;46902;52.920;6.536;2023-04-24T02:46:25;9.90;99.90
61016;DHT22;46902;52.920;6.536;2023-04-24T02:48:50;9.80;99.90
61016;DHT22;46902;52.920;6.536;2023-04-24T02:51:16;9.80;99.90
61016;DHT22;46902;52.920;6.536;2023-04-24T02:53:42;9.80;99.90
61016;DHT22;46902;52.920;6.536;2023-04-24T02:56:07;9.70;99.90
61016;DHT22;46902;52.920;6.536;2023-04-24T02:58:33;9.80;99.90
61016;DHT22;46902;52.920;6.536;2023-04-24T03:00:59;9.80;99.90
61016;DHT22;46902;52.920;6.536;2023-04-24T03:03:26;9.70;99.90
61016;DHT22;46902;52.920;6.536;2023-04-24T03:05:51;9.70;99.90
61016;DHT22;46902;52.920;6.536;2023-04-24T03:08:18;9.70;99.90
61016;DHT22;46902;52.920;6.536;2023-04-24T03:10:43;9.70;99.90
61016;DHT22;46902;52.920;6.536;2023-04-24T03:13:09;9.70;99.90
61016;DHT22;46902;52.920;6.536;2023-04-24T03:15:35;9.70;99.90
61016;DHT22;46902;52.920;6.536;2023-04-24T03:18:00;9.70;99.90
61016;DHT22;46902;52.920;6.536;2023-04-24T03:20:26;9.70;99.90
61016;DHT22;46902;52.920;6.536;2023-04-24T03:22:52;9.70;99.90
61016;DHT22;46902;52.920;6.536;2023-04-24T03:25:18;9.70;99.90
61016;DHT22;46902;52.920;6.536;2023-04-24T03:27:43;9.60;99.90
61016;DHT22;46902;52.920;6.536;2023-04-24T03:30:09;9.60;99.90
61016;DHT22;46902;52.920;6.536;2023-04-24T03:32:35;9.70;99.90
61016;DHT22;46902;52.920;6.536;2023-04-24T03:35:01;9.60;99.90
61016;DHT22;46902;52.920;6.536;2023-04-24T03:37:27;9.60;99.90
61016;DHT22;46902;52.920;6.536;2023-04-24T03:39:52;9.60;99.90
61016;DHT22;46902;52.920;6.536;2023-04-24T03:42:18;9.60;99.90
61016;DHT22;46902;52.920;6.536;2023-04-24T03:44:44;9.60;99.90
61016;DHT22;46902;52.920;6.536;2023-04-24T03:47:09;9.50;99.90
61016;DHT22;46902;52.920;6.536;2023-04-24T03:49:35;9.60;99.90
61016;DHT22;46902;52.920;6.536;2023-04-24T03:52:01;9.60;99.90
61016;DHT22;46902;52.920;6.536;2023-04-24T03:54:27;9.60;99.90
61016;DHT22;46902;52.920;6.536;2023-04-24T03:56:52;9.60;99.90
61016;DHT22;46902;52.920;6.536;2023-04-24T03:59:18;9.60;99.90
61016;DHT22;46902;52.920;6.536;2023-04-24T04:01:44;9.60;99.90
61016;DHT22;46902;52.920;6.536;2023-04-24T04:04:10;9.50;99.90
61016;DHT22;46902;52.920;6.536;2023-04-24T04:06:37;9.50;99.90
61016;DHT22;46902;52.920;6.536;2023-04-24T04:09:03;9.50;99.90
61016;DHT22;46902;52.920;6.536;2023-04-24T04:11:29;9.50;99.90
61016;DHT22;46902;52.920;6.536;2023-04-24T04:13:55;9.50;99.90
61016;DHT22;46902;52.920;6.536;2023-04-24T04:16:22;9.60;99.90
61016;DHT22;46902;52.920;6.536;2023-04-24T04:18:48;9.60;99.90
61016;DHT22;46902;52.920;6.536;2023-04-24T04:21:13;9.60;99.90
61016;DHT22;46902;52.920;6.536;2023-04-24T04:23:39;9.50;99.90
61016;DHT22;46902;52.920;6.536;2023-04-24T04:26:05;9.60;99.90
61016;DHT22;46902;52.920;6.536;2023-04-24T04:28:31;9.60;99.90
61016;DHT22;46902;52.920;6.536;2023-04-24T04:30:58;9.50;99.90
61016;DHT22;46902;52.920;6.536;2023-04-24T04:33:24;9.60;99.90
61016;DHT22;46902;52.920;6.536;2023-04-24T04:35:50;9.50;99.90
61016;DHT22;46902;52.920;6.536;2023-04-24T04:38:19;9.50;99.90
61016;DHT22;46902;52.920;6.536;2023-04-24T04:40:45;9.50;99.90
61016;DHT22;46902;52.920;6.536;2023-04-24T04:43:11;9.40;99.90
61016;DHT22;46902;52.920;6.536;2023-04-24T04:45:37;9.40;99.90
61016;DHT22;46902;52.920;6.536;2023-04-24T04:48:04;9.40;99.90
61016;DHT22;46902;52.920;6.536;2023-04-24T04:50:31;9.40;99.90
61016;DHT22;46902;52.920;6.536;2023-04-24T04:52:56;9.30;99.90
61016;DHT22;46902;52.920;6.536;2023-04-24T04:55:22;9.30;99.90
61016;DHT22;46902;52.920;6.536;2023-04-24T04:57:48;9.30;99.90
61016;DHT22;46902;52.920;6.536;2023-04-24T05:00:13;9.30;99.90
61016;DHT22;46902;52.920;6.536;2023-04-24T05:02:39;9.30;99.90
61016;DHT22;46902;52.920;6.536;2023-04-24T05:05:06;9.30;99.90
61016;DHT22;46902;52.920;6.536;2023-04-24T05:07:32;9.30;99.90
61016;DHT22;46902;52.920;6.536;2023-04-24T05:09:57;9.40;99.90
61016;DHT22;46902;52.920;6.536;2023-04-24T05:12:23;9.30;99.90
61016;DHT22;46902;52.920;6.536;2023-04-24T05:14:49;9.30;99.90
61016;DHT22;46902;52.920;6.536;2023-04-24T05:17:15;9.30;99.90
61016;DHT22;46902;52.920;6.536;2023-04-24T05:19:40;9.30;99.90
61016;DHT22;46902;52.920;6.536;2023-04-24T05:22:06;9.30;99.90
61016;DHT22;46902;52.920;6.536;2023-04-24T05:24:35;9.30;99.90
61016;DHT22;46902;52.920;6.536;2023-04-24T05:27:02;9.40;99.90
61016;DHT22;46902;52.920;6.536;2023-04-24T05:29:28;9.30;99.90
61016;DHT22;46902;52.920;6.536;2023-04-24T05:31:56;9.30;99.90
61016;DHT22;46902;52.920;6.536;2023-04-24T05:34:22;9.30;99.90
61016;DHT22;46902;52.920;6.536;2023-04-24T05:36:47;9.30;99.90
61016;DHT22;46902;52.920;6.536;2023-04-24T05:39:13;9.40;99.90
61016;DHT22;46902;52.920;6.536;2023-04-24T05:41:40;9.40;99.90
61016;DHT22;46902;52.920;6.536;2023-04-24T05:44:06;9.40;99.90
61016;DHT22;46902;52.920;6.536;2023-04-24T05:46:31;9.40;99.90
61016;DHT22;46902;52.920;6.536;2023-04-24T05:48:57;9.40;99.90
61016;DHT22;46902;52.920;6.536;2023-04-24T05:51:23;9.50;99.90
61016;DHT22;46902;52.920;6.536;2023-04-24T05:53:49;9.50;99.90
61016;DHT22;46902;52.920;6.536;2023-04-24T05:56:15;9.60;99.90
61016;DHT22;46902;52.920;6.536;2023-04-24T05:58:41;9.60;99.90
61016;DHT22;46902;52.920;6.536;2023-04-24T06:01:06;9.70;99.90
61016;DHT22;46902;52.920;6.536;2023-04-24T06:03:32;9.70;99.90
61016;DHT22;46902;52.920;6.536;2023-04-24T06:05:58;9.80;99.90
61016;DHT22;46902;52.920;6.536;2023-04-24T06:08:24;9.80;99.90
61016;DHT22;46902;52.920;6.536;2023-04-24T06:10:49;9.90;99.90
61016;DHT22;46902;52.920;6.536;2023-04-24T06:13:15;9.90;99.90
61016;DHT22;46902;52.920;6.536;2023-04-24T06:15:41;10.00;99.90
61016;DHT22;46902;52.920;6.536;2023-04-24T06:18:07;10.00;99.90
61016;DHT22;46902;52.920;6.536;2023-04-24T06:20:35;10.00;99.90
61016;DHT22;46902;52.920;6.536;2023-04-24T06:23:01;10.10;99.90
61016;DHT22;46902;52.920;6.536;2023-04-24T06:25:27;10.10;99.90
61016;DHT22;46902;52.920;6.536;2023-04-24T06:27:55;10.20;99.90
61016;DHT22;46902;52.920;6.536;2023-04-24T06:30:21;10.20;99.90
61016;DHT22;46902;52.920;6.536;2023-04-24T06:32:46;10.20;99.90
61016;DHT22;46902;52.920;6.536;2023-04-24T06:35:12;10.20;99.90
61016;DHT22;46902;52.920;6.536;2023-04-24T06:37:42;10.30;99.90
61016;DHT22;46902;52.920;6.536;2023-04-24T06:40:08;10.30;99.90
61016;DHT22;46902;52.920;6.536;2023-04-24T06:42:34;10.30;99.90
61016;DHT22;46902;52.920;6.536;2023-04-24T06:45:00;10.40;99.90
61016;DHT22;46902;52.920;6.536;2023-04-24T06:47:29;10.30;99.90
61016;DHT22;46902;52.920;6.536;2023-04-24T06:49:55;10.40;99.90
61016;DHT22;46902;52.920;6.536;2023-04-24T06:52:20;10.40;99.90
61016;DHT22;46902;52.920;6.536;2023-04-24T06:54:46;10.40;99.90
61016;DHT22;46902;52.920;6.536;2023-04-24T06:57:12;10.40;99.90
61016;DHT22;46902;52.920;6.536;2023-04-24T06:59:38;10.40;99.90
61016;DHT22;46902;52.920;6.536;2023-04-24T07:02:04;10.40;99.90
61016;DHT22;46902;52.920;6.536;2023-04-24T07:04:30;10.40;99.90
61016;DHT22;46902;52.920;6.536;2023-04-24T07:06:56;10.40;99.90
61016;DHT22;46902;52.920;6.536;2023-04-24T07:09:24;10.40;99.90
61016;DHT22;46902;52.920;6.536;2023-04-24T07:11:51;10.40;99.90
61016;DHT22;46902;52.920;6.536;2023-04-24T07:14:17;10.50;99.90
61016;DHT22;46902;52.920;6.536;2023-04-24T07:16:43;10.40;99.90
61016;DHT22;46902;52.920;6.536;2023-04-24T07:19:09;10.40;99.90
61016;DHT22;46902;52.920;6.536;2023-04-24T07:21:34;10.40;99.90
61016;DHT22;46902;52.920;6.536;2023-04-24T07:24:00;10.40;99.90
61016;DHT22;46902;52.920;6.536;2023-04-24T07:26:28;10.40;99.90
61016;DHT22;46902;52.920;6.536;2023-04-24T07:28:54;10.40;99.90
61016;DHT22;46902;52.920;6.536;2023-04-24T07:31:20;10.40;99.90
61016;DHT22;46902;52.920;6.536;2023-04-24T07:33:46;10.40;99.90
61016;DHT22;46902;52.920;6.536;2023-04-24T07:36:12;10.30;99.90
61016;DHT22;46902;52.920;6.536;2023-04-24T07:38:42;10.40;99.90
61016;DHT22;46902;52.920;6.536;2023-04-24T07:41:08;10.40;99.90
61016;DHT22;46902;52.920;6.536;2023-04-24T07:43:34;10.40;99.90
61016;DHT22;46902;52.920;6.536;2023-04-24T07:45:59;10.30;99.90
61016;DHT22;46902;52.920;6.536;2023-04-24T07:48:25;10.30;99.90
61016;DHT22;46902;52.920;6.536;2023-04-24T07:50:52;10.30;99.90
61016;DHT22;46902;52.920;6.536;2023-04-24T07:53:17;10.20;99.90
61016;DHT22;46902;52.920;6.536;2023-04-24T07:55:43;10.20;99.90
61016;DHT22;46902;52.920;6.536;2023-04-24T07:58:12;10.20;99.90
61016;DHT22;46902;52.920;6.536;2023-04-24T08:00:37;10.20;99.90
61016;DHT22;46902;52.920;6.536;2023-04-24T08:03:03;10.10;99.90
61016;DHT22;46902;52.920;6.536;2023-04-24T08:05:29;10.10;99.90
61016;DHT22;46902;52.920;6.536;2023-04-24T08:07:55;10.20;99.90
61016;DHT22;46902;52.920;6.536;2023-04-24T08:10:24;10.10;99.90
61016;DHT22;46902;52.920;6.536;2023-04-24T08:12:50;10.10;99.90
61016;DHT22;46902;52.920;6.536;2023-04-24T08:15:15;10.20;99.90
61016;DHT22;46902;52.920;6.536;2023-04-24T08:17:41;10.20;99.90
61016;DHT22;46902;52.920;6.536;2023-04-24T08:20:08;10.10;99.90
61016;DHT22;46902;52.920;6.536;2023-04-24T08:22:39;10.10;99.90
61016;DHT22;46902;52.920;6.536;2023-04-24T08:25:06;10.10;99.90
61016;DHT22;46902;52.920;6.536;2023-04-24T08:27:31;10.00;99.90
61016;DHT22;46902;52.920;6.536;2023-04-24T08:29:57;10.00;99.90
61016;DHT22;46902;52.920;6.536;2023-04-24T08:32:24;10.00;99.90
61016;DHT22;46902;52.920;6.536;2023-04-24T08:34:49;10.00;99.90
61016;DHT22;46902;52.920;6.536;2023-04-24T08:37:18;10.00;99.90
61016;DHT22;46902;52.920;6.536;2023-04-24T08:39:43;10.00;99.90
61016;DHT22;46902;52.920;6.536;2023-04-24T08:42:09;10.00;99.90
61016;DHT22;46902;52.920;6.536;2023-04-24T08:44:36;9.90;99.90
61016;DHT22;46902;52.920;6.536;2023-04-24T08:47:03;9.90;99.90
61016;DHT22;46902;52.920;6.536;2023-04-24T08:49:29;9.80;99.90
61016;DHT22;46902;52.920;6.536;2023-04-24T08:51:55;9.90;99.90
61016;DHT22;46902;52.920;6.536;2023-04-24T08:54:21;9.90;99.90
61016;DHT22;46902;52.920;6.536;2023-04-24T08:56:48;9.80;99.90
61016;DHT22;46902;52.920;6.536;2023-04-24T08:59:15;9.80;99.90
61016;DHT22;46902;52.920;6.536;2023-04-24T09:01:41;9.80;99.90
61016;DHT22;46902;52.920;6.536;2023-04-24T09:04:08;9.80;99.90
61016;DHT22;46902;52.920;6.536;2023-04-24T09:06:35;9.70;99.90
61016;DHT22;46902;52.920;6.536;2023-04-24T09:09:02;9.60;99.90
61016;DHT22;46902;52.920;6.536;2023-04-24T09:11:30;9.60;99.90
61016;DHT22;46902;52.920;6.536;2023-04-24T09:13:56;9.50;99.90
61016;DHT22;46902;52.920;6.536;2023-04-24T09:16:25;9.50;99.90
61016;DHT22;46902;52.920;6.536;2023-04-24T09:18:51;9.50;99.90
61016;DHT22;46902;52.920;6.536;2023-04-24T09:21:17;9.50;99.90
61016;DHT22;46902;52.920;6.536;2023-04-24T09:23:42;9.50;99.90
61016;DHT22;46902;52.920;6.536;2023-04-24T09:26:09;9.50;99.90
61016;DHT22;46902;52.920;6.536;2023-04-24T09:28:37;9.50;99.90
61016;DHT22;46902;52.920;6.536;2023-04-24T09:33:32;9.60;99.90
61016;DHT22;46902;52.920;6.536;2023-04-24T09:35:58;9.60;99.90
61016;DHT22;46902;52.920;6.536;2023-04-24T09:38:37;9.60;99.90
61016;DHT22;46902;52.920;6.536;2023-04-24T09:41:06;9.70;99.90
61016;DHT22;46902;52.920;6.536;2023-04-24T09:43:32;9.60;99.90
61016;DHT22;46902;52.920;6.536;2023-04-24T09:45:59;9.60;99.90
61016;DHT22;46902;52.920;6.536;2023-04-24T09:48:38;9.60;99.90
61016;DHT22;46902;52.920;6.536;2023-04-24T09:51:05;9.60;99.90
61016;DHT22;46902;52.920;6.536;2023-04-24T09:53:36;9.60;99.90
61016;DHT22;46902;52.920;6.536;2023-04-24T09:56:09;9.60;99.90
61016;DHT22;46902;52.920;6.536;2023-04-24T09:58:36;9.60;99.90
61016;DHT22;46902;52.920;6.536;2023-04-24T10:01:02;9.60;99.90
61016;DHT22;46902;52.920;6.536;2023-04-24T10:03:30;9.60;99.90
61016;DHT22;46902;52.920;6.536;2023-04-24T10:06:01;9.60;99.90
61016;DHT22;46902;52.920;6.536;2023-04-24T10:08:26;9.60;99.90
61016;DHT22;46902;52.920;6.536;2023-04-24T10:10:58;9.60;99.90
61016;DHT22;46902;52.920;6.536;2023-04-24T10:13:25;9.70;99.90
61016;DHT22;46902;52.920;6.536;2023-04-24T10:15:51;9.80;99.90
61016;DHT22;46902;52.920;6.536;2023-04-24T10:18:17;9.80;99.90
61016;DHT22;46902;52.920;6.536;2023-04-24T10:20:43;10.00;99.90
61016;DHT22;46902;52.920;6.536;2023-04-24T10:23:09;10.00;99.90
61016;DHT22;46902;52.920;6.536;2023-04-24T10:25:36;10.00;99.90
61016;DHT22;46902;52.920;6.536;2023-04-24T10:28:03;10.00;99.90
61016;DHT22;46902;52.920;6.536;2023-04-24T10:30:33;10.00;99.90
61016;DHT22;46902;52.920;6.536;2023-04-24T10:33:05;10.00;99.90
61016;DHT22;46902;52.920;6.536;2023-04-24T10:35:41;9.90;99.90
61016;DHT22;46902;52.920;6.536;2023-04-24T10:38:17;9.80;99.90
61016;DHT22;46902;52.920;6.536;2023-04-24T10:40:43;9.80;99.90
61016;DHT22;46902;52.920;6.536;2023-04-24T10:43:09;9.80;99.90
61016;DHT22;46902;52.920;6.536;2023-04-24T10:45:37;9.70;99.90
61016;DHT22;46902;52.920;6.536;2023-04-24T10:48:08;9.70;99.90
61016;DHT22;46902;52.920;6.536;2023-04-24T10:50:51;9.70;99.90
61016;DHT22;46902;52.920;6.536;2023-04-24T10:53:23;9.70;99.90
61016;DHT22;46902;52.920;6.536;2023-04-24T10:56:09;9.70;99.90
61016;DHT22;46902;52.920;6.536;2023-04-24T10:58:43;9.70;99.90
61016;DHT22;46902;52.920;6.536;2023-04-24T11:01:31;9.80;99.90
61016;DHT22;46902;52.920;6.536;2023-04-24T11:03:59;9.90;99.90
61016;DHT22;46902;52.920;6.536;2023-04-24T11:06:45;10.00;99.90
61016;DHT22;46902;52.920;6.536;2023-04-24T11:09:15;10.10;99.90
61016;DHT22;46902;52.920;6.536;2023-04-24T11:11:46;10.20;99.90
61016;DHT22;46902;52.920;6.536;2023-04-24T11:14:14;10.20;99.90
61016;DHT22;46902;52.920;6.536;2023-04-24T11:16:45;10.20;99.90
61016;DHT22;46902;52.920;6.536;2023-04-24T11:22:03;10.10;99.90
61016;DHT22;46902;52.920;6.536;2023-04-24T11:24:33;10.00;99.90
61016;DHT22;46902;52.920;6.536;2023-04-24T11:27:06;10.00;99.90
61016;DHT22;46902;52.920;6.536;2023-04-24T11:29:41;9.90;99.90
61016;DHT22;46902;52.920;6.536;2023-04-24T11:32:15;9.90;99.90
61016;DHT22;46902;52.920;6.536;2023-04-24T11:34:46;9.90;99.90
61016;DHT22;46902;52.920;6.536;2023-04-24T11:37:13;9.90;99.90
61016;DHT22;46902;52.920;6.536;2023-04-24T11:39:38;9.90;99.90
61016;DHT22;46902;52.920;6.536;2023-04-24T11:42:04;10.00;99.90
61016;DHT22;46902;52.920;6.536;2023-04-24T11:44:33;10.10;99.90
61016;DHT22;46902;52.920;6.536;2023-04-24T11:46:59;10.20;99.90
61016;DHT22;46902;52.920;6.536;2023-04-24T11:49:25;10.20;99.90
61016;DHT22;46902;52.920;6.536;2023-04-24T11:51:55;10.20;99.90
61016;DHT22;46902;52.920;6.536;2023-04-24T11:54:20;10.10;99.90
61016;DHT22;46902;52.920;6.536;2023-04-24T11:56:47;10.10;99.90
61016;DHT22;46902;52.920;6.536;2023-04-24T11:59:12;10.00;99.90
61016;DHT22;46902;52.920;6.536;2023-04-24T12:01:47;10.00;99.90
61016;DHT22;46902;52.920;6.536;2023-04-24T12:04:17;9.90;99.90
61016;DHT22;46902;52.920;6.536;2023-04-24T12:07:02;9.90;99.90
61016;DHT22;46902;52.920;6.536;2023-04-24T12:09:28;9.90;99.90
61016;DHT22;46902;52.920;6.536;2023-04-24T12:11:55;10.00;99.90
61016;DHT22;46902;52.920;6.536;2023-04-24T12:14:24;10.00;99.90
61016;DHT22;46902;52.920;6.536;2023-04-24T12:16:50;10.10;99.90
61016;DHT22;46902;52.920;6.536;2023-04-24T12:19:22;10.10;99.90
61016;DHT22;46902;52.920;6.536;2023-04-24T12:22:02;10.10;99.90
61016;DHT22;46902;52.920;6.536;2023-04-24T12:24:29;10.20;99.90
61016;DHT22;46902;52.920;6.536;2023-04-24T12:26:56;10.20;99.90
61016;DHT22;46902;52.920;6.536;2023-04-24T12:29:23;10.30;99.90
61016;DHT22;46902;52.920;6.536;2023-04-24T12:31:50;10.40;99.90
61016;DHT22;46902;52.920;6.536;2023-04-24T12:34:25;10.50;99.90
61016;DHT22;46902;52.920;6.536;2023-04-24T12:36:50;10.70;99.90
61016;DHT22;46902;52.920;6.536;2023-04-24T12:39:20;10.80;99.90
61016;DHT22;46902;52.920;6.536;2023-04-24T12:41:55;10.90;99.90
61016;DHT22;46902;52.920;6.536;2023-04-24T12:44:34;10.80;99.90
61016;DHT22;46902;52.920;6.536;2023-04-24T12:47:01;10.80;99.90
61016;DHT22;46902;52.920;6.536;2023-04-24T12:49:27;10.70;99.90
61016;DHT22;46902;52.920;6.536;2023-04-24T12:51:53;10.70;99.90
61016;DHT22;46902;52.920;6.536;2023-04-24T12:54:19;10.70;99.90
61016;DHT22;46902;52.920;6.536;2023-04-24T12:56:45;10.70;99.90
61016;DHT22;46902;52.920;6.536;2023-04-24T12:59:11;10.70;99.90
61016;DHT22;46902;52.920;6.536;2023-04-24T13:01:36;10.60;99.90
61016;DHT22;46902;52.920;6.536;2023-04-24T13:04:02;10.60;99.90
61016;DHT22;46902;52.920;6.536;2023-04-24T13:06:27;10.50;99.90
61016;DHT22;46902;52.920;6.536;2023-04-24T13:08:53;10.40;99.90
61016;DHT22;46902;52.920;6.536;2023-04-24T13:11:20;10.40;99.90
61016;DHT22;46902;52.920;6.536;2023-04-24T13:13:47;10.30;99.90
61016;DHT22;46902;52.920;6.536;2023-04-24T13:16:13;10.40;99.90
61016;DHT22;46902;52.920;6.536;2023-04-24T13:18:38;10.40;99.90
61016;DHT22;46902;52.920;6.536;2023-04-24T13:21:04;10.40;99.90
61016;DHT22;46902;52.920;6.536;2023-04-24T13:23:29;10.50;99.90
61016;DHT22;46902;52.920;6.536;2023-04-24T13:25:55;10.50;99.90
61016;DHT22;46902;52.920;6.536;2023-04-24T13:28:24;10.50;99.90
61016;DHT22;46902;52.920;6.536;2023-04-24T13:30:50;10.50;99.90
61016;DHT22;46902;52.920;6.536;2023-04-24T13:33:16;10.40;99.90
61016;DHT22;46902;52.920;6.536;2023-04-24T13:35:42;10.30;99.90
61016;DHT22;46902;52.920;6.536;2023-04-24T13:38:07;10.20;99.90
61016;DHT22;46902;52.920;6.536;2023-04-24T13:40:33;10.20;99.90
61016;DHT22;46902;52.920;6.536;2023-04-24T13:42:59;10.10;99.90
61016;DHT22;46902;52.920;6.536;2023-04-24T13:45:26;10.00;99.90
61016;DHT22;46902;52.920;6.536;2023-04-24T13:47:52;10.00;99.90
61016;DHT22;46902;52.920;6.536;2023-04-24T13:50:20;10.00;99.90
61016;DHT22;46902;52.920;6.536;2023-04-24T13:52:45;10.00;99.90
61016;DHT22;46902;52.920;6.536;2023-04-24T13:55:11;9.90;99.90
61016;DHT22;46902;52.920;6.536;2023-04-24T13:57:36;9.90;99.90
61016;DHT22;46902;52.920;6.536;2023-04-24T14:00:03;10.00;99.90
61016;DHT22;46902;52.920;6.536;2023-04-24T14:02:29;10.00;99.90
61016;DHT22;46902;52.920;6.536;2023-04-24T14:04:55;10.00;99.90
61016;DHT22;46902;52.920;6.536;2023-04-24T14:07:21;10.10;99.90
61016;DHT22;46902;52.920;6.536;2023-04-24T14:09:46;10.10;99.90
61016;DHT22;46902;52.920;6.536;2023-04-24T14:12:12;10.10;99.90
61016;DHT22;46902;52.920;6.536;2023-04-24T14:14:39;10.10;99.90
61016;DHT22;46902;52.920;6.536;2023-04-24T14:17:05;10.10;99.90
61016;DHT22;46902;52.920;6.536;2023-04-24T14:19:31;10.10;99.90
61016;DHT22;46902;52.920;6.536;2023-04-24T14:21:56;10.10;99.90
61016;DHT22;46902;52.920;6.536;2023-04-24T14:24:23;10.10;99.90
61016;DHT22;46902;52.920;6.536;2023-04-24T14:26:49;10.00;99.90
61016;DHT22;46902;52.920;6.536;2023-04-24T14:29:15;10.00;99.90
61016;DHT22;46902;52.920;6.536;2023-04-24T14:31:42;9.90;99.90
61016;DHT22;46902;52.920;6.536;2023-04-24T14:34:08;9.90;99.90
61016;DHT22;46902;52.920;6.536;2023-04-24T14:36:34;9.90;99.90
61016;DHT22;46902;52.920;6.536;2023-04-24T14:39:00;9.80;99.90
61016;DHT22;46902;52.920;6.536;2023-04-24T14:41:28;9.80;99.90
61016;DHT22;46902;52.920;6.536;2023-04-24T14:43:54;9.80;99.90
61016;DHT22;46902;52.920;6.536;2023-04-24T14:46:19;9.70;99.90
61016;DHT22;46902;52.920;6.536;2023-04-24T14:48:45;9.70;99.90
61016;DHT22;46902;52.920;6.536;2023-04-24T14:51:11;9.70;99.90
61016;DHT22;46902;52.920;6.536;2023-04-24T14:53:36;9.70;99.90
61016;DHT22;46902;52.920;6.536;2023-04-24T14:56:02;9.80;99.90
61016;DHT22;46902;52.920;6.536;2023-04-24T14:58:28;9.80;99.90
61016;DHT22;46902;52.920;6.536;2023-04-24T15:00:53;9.80;99.90
61016;DHT22;46902;52.920;6.536;2023-04-24T15:03:19;9.80;99.90
61016;DHT22;46902;52.920;6.536;2023-04-24T15:05:45;9.90;99.90
61016;DHT22;46902;52.920;6.536;2023-04-24T15:08:11;9.80;99.90
61016;DHT22;46902;52.920;6.536;2023-04-24T15:10:37;9.80;99.90
61016;DHT22;46902;52.920;6.536;2023-04-24T15:13:02;9.90;99.90
61016;DHT22;46902;52.920;6.536;2023-04-24T15:15:28;10.00;99.90
61016;DHT22;46902;52.920;6.536;2023-04-24T15:17:53;10.20;99.90
61016;DHT22;46902;52.920;6.536;2023-04-24T15:20:19;10.40;99.90
61016;DHT22;46902;52.920;6.536;2023-04-24T15:22:45;10.50;99.90
61016;DHT22;46902;52.920;6.536;2023-04-24T15:25:10;10.50;99.90
61016;DHT22;46902;52.920;6.536;2023-04-24T15:27:46;10.40;99.90
61016;DHT22;46902;52.920;6.536;2023-04-24T15:30:13;10.40;99.90
61016;DHT22;46902;52.920;6.536;2023-04-24T15:32:38;10.30;99.90
61016;DHT22;46902;52.920;6.536;2023-04-24T15:35:05;10.20;99.90
61016;DHT22;46902;52.920;6.536;2023-04-24T15:37:31;10.10;99.90
61016;DHT22;46902;52.920;6.536;2023-04-24T15:39:57;10.10;99.90